Clarksdale, Illinois
Current Conditions -  °F | °C
As of 3:15 PM on Monday 22 Dec 2014 (Local Time) from KTAZ Reporting Station
Drizzle Drizzle  
Wind Chill: 37°   Ceiling: 500
Heat Index: 43°   Visibility: 7mi
Dew Point: 43°   Wind: 12mph
Humidity: 100%   Direction: 140°SE
Pressure: 29.6"   Gusts: 17mph
Location:  39.4776°N, 89.4474°W
Report Text: KTAZ 222115Z AUTO 14010G15KT 7SM DZ OVC005 06/06 A2960 RMK AO2
Loading
Personal Weather Stations






























Interactive Weather Map New forecast layout! Learn more

10-Day Weather Forecast

Advertisements
Track Severe Weather on mobile